Terminal Aerodrome Forecast
Issued by NWS

Home | Current Version | Previous Version | Text Only | Print | Product List | Glossary On
Versions: 1 2 3 4 5 6 7 8 9 10 11 12 13 14 15 16 17 18 19 20 21 22 23 24 25 26
000
FTUS46 KEKA 251305 AAA
TAFUKI
TAF AMD
KUKI 251305Z 2513/2612 04003KT P6SM VCSH SCT018 OVC060
     FM251900 13004KT P6SM VCTS BKN025CB OVC040
     FM260200 03005KT P6SM BKN040 OVC100=

USA.gov is the U.S. government's official web portal to all federal, state and local government web resources and services.